createdAt,value
2017-08-02T00:00:27.687Z,13.70
2017-08-02T00:02:55.418Z,13.90
2017-08-02T00:05:23.012Z,13.07
2017-08-02T00:07:50.916Z,13.50
2017-08-02T00:10:18.552Z,10.90
2017-08-02T00:12:46.304Z,11.57
2017-08-02T00:15:14.017Z,12.90
2017-08-02T00:17:41.686Z,12.50
2017-08-02T00:20:09.283Z,14.20
2017-08-02T00:22:37.845Z,13.73
2017-08-02T00:25:05.483Z,12.80
2017-08-02T00:27:33.104Z,12.43
2017-08-02T00:30:00.824Z,11.80
2017-08-02T00:32:28.495Z,13.77
2017-08-02T00:34:56.060Z,12.73
2017-08-02T00:37:29.021Z,13.97
2017-08-02T00:39:56.674Z,12.83
2017-08-02T00:42:24.225Z,11.70
2017-08-02T00:44:51.875Z,12.53
2017-08-02T00:47:19.433Z,12.60
2017-08-02T00:49:46.987Z,15.50
2017-08-02T00:52:14.852Z,11.70
2017-08-02T00:54:42.413Z,13.87
2017-08-02T00:57:09.977Z,12.30
2017-08-02T00:59:37.835Z,14.77
2017-08-02T01:02:05.424Z,12.70
2017-08-02T01:04:32.997Z,12.77
2017-08-02T01:07:00.686Z,13.73
2017-08-02T01:09:28.302Z,13.70
2017-08-02T01:11:55.862Z,12.23
2017-08-02T01:14:23.468Z,14.83
2017-08-02T01:16:51.040Z,12.73
2017-08-02T01:19:19.303Z,14.67
2017-08-02T01:21:46.895Z,13.83
2017-08-02T01:24:14.467Z,11.37
2017-08-02T01:26:42.068Z,12.87
2017-08-02T01:29:09.968Z,15.20
2017-08-02T01:31:37.533Z,12.40
2017-08-02T01:34:05.119Z,14.07
2017-08-02T01:36:32.885Z,13.03
2017-08-02T01:39:00.478Z,14.50
2017-08-02T01:41:28.086Z,14.13
2017-08-02T01:43:55.857Z,15.30
2017-08-02T01:46:23.430Z,14.03
2017-08-02T01:48:51.024Z,15.30
2017-08-02T01:51:18.632Z,13.30
2017-08-02T01:53:46.178Z,13.80
2017-08-02T01:56:13.814Z,14.80
2017-08-02T01:58:41.714Z,16.30
2017-08-02T02:01:09.274Z,18.10
2017-08-02T02:03:36.842Z,19.70
2017-08-02T02:06:04.627Z,23.10
2017-08-02T02:08:32.364Z,23.50
2017-08-02T02:11:00.160Z,20.30
2017-08-02T02:13:27.853Z,17.60
2017-08-02T02:15:55.434Z,19.43
2017-08-02T02:18:23.144Z,19.13
2017-08-02T02:20:50.752Z,18.07
2017-08-02T02:23:18.334Z,15.93
2017-08-02T02:25:45.891Z,17.40
2017-08-02T02:28:13.540Z,19.90
2017-08-02T02:30:42.177Z,20.20
2017-08-02T02:33:09.958Z,20.50
2017-08-02T02:35:38.208Z,19.87
2017-08-02T02:38:05.882Z,17.80
2017-08-02T02:40:34.447Z,18.10
2017-08-02T02:43:02.081Z,17.63
2017-08-02T02:45:29.613Z,22.60
2017-08-02T02:47:57.181Z,19.87
2017-08-02T02:50:24.914Z,17.60
2017-08-02T02:52:52.560Z,17.83
2017-08-02T02:55:20.119Z,20.80
2017-08-02T02:57:48.004Z,18.73
2017-08-02T03:00:17.631Z,19.03
2017-08-02T03:02:45.229Z,16.87
2017-08-02T03:05:13.184Z,19.57
2017-08-02T03:07:40.748Z,20.87
2017-08-02T03:10:08.342Z,23.70
2017-08-02T03:12:36.021Z,27.10
2017-08-02T03:15:03.692Z,30.53
2017-08-02T03:17:31.284Z,28.73
2017-08-02T03:19:59.129Z,34.40
2017-08-02T03:22:26.681Z,30.90
2017-08-02T03:24:57.801Z,33.63
2017-08-02T03:27:25.668Z,33.43
2017-08-02T03:29:53.311Z,23.47
2017-08-02T03:32:21.275Z,30.13
2017-08-02T03:34:49.152Z,28.20
2017-08-02T03:37:17.065Z,25.17
2017-08-02T03:39:44.895Z,23.20
2017-08-02T03:42:12.507Z,22.50
2017-08-02T03:44:40.157Z,21.67
2017-08-02T03:47:07.785Z,19.20
2017-08-02T03:49:35.389Z,16.73
2017-08-02T03:52:03.040Z,18.80
2017-08-02T03:54:31.377Z,16.87
2017-08-02T03:56:59.265Z,16.43
2017-08-02T03:59:28.126Z,14.40
2017-08-02T04:01:55.952Z,12.97
2017-08-02T04:04:23.513Z,13.33
2017-08-02T04:06:51.112Z,13.53
2017-08-02T04:09:18.814Z,14.37
2017-08-02T04:11:47.030Z,14.30
2017-08-02T04:14:15.327Z,13.70
2017-08-02T04:16:43.128Z,15.17
2017-08-02T04:19:10.765Z,13.40
2017-08-02T04:21:38.481Z,13.80
2017-08-02T04:24:06.214Z,13.23
2017-08-02T04:26:34.017Z,11.63
2017-08-02T04:29:01.915Z,12.23
2017-08-02T04:31:30.618Z,10.80
2017-08-02T04:33:58.676Z,11.93
2017-08-02T04:36:26.564Z,15.57
2017-08-02T04:38:54.132Z,15.73
2017-08-02T04:41:21.755Z,15.90
2017-08-02T04:43:49.492Z,16.03
2017-08-02T04:46:17.546Z,16.23
2017-08-02T04:48:45.554Z,15.87
2017-08-02T04:51:13.304Z,15.60
2017-08-02T04:53:40.993Z,15.80
2017-08-02T04:56:09.399Z,12.13
2017-08-02T04:58:37.277Z,13.77
2017-08-02T05:01:05.020Z,11.50
2017-08-02T05:03:32.651Z,10.87
2017-08-02T05:06:00.396Z,9.47
2017-08-02T05:08:28.194Z,10.10
2017-08-02T05:10:56.133Z,10.17
2017-08-02T05:13:23.716Z,10.20
2017-08-02T05:15:51.941Z,12.27
2017-08-02T05:18:20.041Z,13.60
2017-08-02T05:20:47.631Z,15.10
2017-08-02T05:23:15.587Z,15.27
2017-08-02T05:25:45.527Z,16.03
2017-08-02T05:28:13.240Z,13.90
2017-08-02T05:30:41.007Z,16.37
2017-08-02T05:33:09.017Z,15.07
2017-08-02T05:35:37.016Z,14.53
2017-08-02T05:38:04.854Z,14.43
2017-08-02T05:40:32.985Z,13.60
2017-08-02T05:43:00.928Z,13.97
2017-08-02T05:45:28.715Z,12.67
2017-08-02T05:47:58.890Z,12.30
2017-08-02T05:50:26.973Z,13.00
2017-08-02T05:52:54.753Z,12.47
2017-08-02T05:55:23.397Z,10.23
2017-08-02T05:57:51.306Z,11.27
2017-08-02T06:00:19.366Z,13.13
2017-08-02T06:02:47.167Z,9.80
2017-08-02T06:05:14.996Z,11.40
2017-08-02T06:07:42.834Z,10.43
2017-08-02T06:10:10.535Z,10.00
2017-08-02T06:12:39.163Z,13.13
2017-08-02T06:15:06.978Z,9.30
2017-08-02T06:17:34.781Z,10.90
2017-08-02T06:20:02.995Z,11.97
2017-08-02T06:22:30.996Z,9.93
2017-08-02T06:24:59.595Z,11.57
2017-08-02T06:27:28.240Z,13.50
2017-08-02T06:29:56.163Z,9.30
2017-08-02T06:32:24.170Z,11.00
2017-08-02T06:34:52.035Z,9.70
2017-08-02T06:37:19.847Z,11.17
2017-08-02T06:39:47.636Z,11.07
2017-08-02T06:42:15.368Z,11.13
2017-08-02T06:44:43.314Z,9.67
2017-08-02T06:47:10.823Z,10.27
2017-08-02T06:49:38.497Z,8.97
2017-08-02T06:52:06.206Z,8.20
2017-08-02T06:54:33.753Z,9.80
2017-08-02T06:57:01.317Z,10.13
2017-08-02T06:59:29.363Z,8.50
2017-08-02T07:01:57.093Z,9.47
2017-08-02T07:04:25.274Z,9.00
2017-08-02T07:06:53.034Z,9.53
2017-08-02T07:09:20.650Z,10.83
2017-08-02T07:11:48.521Z,9.93
2017-08-02T07:14:16.210Z,10.40
2017-08-02T07:16:43.856Z,8.77
2017-08-02T07:19:11.807Z,8.33
2017-08-02T07:21:39.466Z,8.77
2017-08-02T07:24:07.060Z,7.30
2017-08-02T07:26:34.673Z,8.07
2017-08-02T07:29:02.378Z,7.47
2017-08-02T07:31:29.984Z,7.27
2017-08-02T07:33:58.569Z,7.70
2017-08-02T07:36:26.189Z,6.00
2017-08-02T07:38:53.759Z,6.40
2017-08-02T07:41:21.398Z,6.33
2017-08-02T07:43:48.976Z,7.10
2017-08-02T07:46:16.636Z,6.60
2017-08-02T07:48:44.369Z,6.40
2017-08-02T07:51:12.077Z,7.60
2017-08-02T07:53:39.724Z,7.43
2017-08-02T07:56:07.457Z,7.47
2017-08-02T07:58:35.070Z,7.10
2017-08-02T08:01:02.696Z,7.63
2017-08-02T08:03:30.312Z,6.30
2017-08-02T08:05:57.897Z,6.47
2017-08-02T08:08:25.570Z,7.43
2017-08-02T08:10:53.249Z,5.80
2017-08-02T08:13:20.842Z,6.27
2017-08-02T08:15:48.459Z,6.57
2017-08-02T08:18:16.133Z,6.23
2017-08-02T08:20:43.809Z,7.23
2017-08-02T08:23:11.431Z,6.03
2017-08-02T08:25:39.102Z,6.13
2017-08-02T08:28:06.934Z,6.40
2017-08-02T08:30:34.734Z,5.40
2017-08-02T08:33:02.841Z,6.47
2017-08-02T08:35:30.153Z,6.90
2017-08-02T08:37:57.756Z,6.30
2017-08-02T08:40:25.445Z,6.73
2017-08-02T08:42:53.306Z,6.33
2017-08-02T08:45:20.745Z,6.60
2017-08-02T08:47:48.460Z,7.00
2017-08-02T08:50:16.398Z,6.17
2017-08-02T08:52:44.101Z,6.03
2017-08-02T08:55:12.324Z,5.90
2017-08-02T08:57:39.930Z,6.50
2017-08-02T09:00:07.601Z,6.60
2017-08-02T09:02:35.398Z,6.30
2017-08-02T09:05:03.191Z,5.87
2017-08-02T09:07:30.999Z,6.23
2017-08-02T09:09:59.130Z,5.07
2017-08-02T09:12:27.029Z,5.23
2017-08-02T09:14:54.685Z,5.47
2017-08-02T09:17:22.353Z,5.87
2017-08-02T09:19:50.004Z,5.13
2017-08-02T09:22:17.767Z,5.70
2017-08-02T09:24:45.550Z,5.37
2017-08-02T09:27:13.346Z,5.77
2017-08-02T09:29:41.062Z,5.83
2017-08-02T09:32:08.887Z,6.20
2017-08-02T09:34:36.487Z,5.60
2017-08-02T09:37:04.241Z,5.20
2017-08-02T09:39:31.883Z,6.17
2017-08-02T09:42:00.378Z,6.30
2017-08-02T09:44:27.869Z,7.00
2017-08-02T09:46:55.532Z,6.40
2017-08-02T09:49:23.513Z,5.87
2017-08-02T09:51:51.125Z,6.30
2017-08-02T09:54:18.728Z,6.07
2017-08-02T09:56:46.353Z,6.37
2017-08-02T09:59:14.032Z,6.97
2017-08-02T10:01:41.709Z,6.37
2017-08-02T10:04:09.370Z,6.60
2017-08-02T10:06:36.958Z,5.90
2017-08-02T10:09:04.973Z,6.93
2017-08-02T10:11:32.624Z,6.10
2017-08-02T10:14:00.264Z,6.53
2017-08-02T10:16:27.935Z,8.07
2017-08-02T10:18:55.554Z,6.43
2017-08-02T10:21:23.812Z,6.60
2017-08-02T10:23:51.725Z,6.90
2017-08-02T10:26:19.306Z,8.13
2017-08-02T10:28:46.841Z,6.63
2017-08-02T10:31:26.953Z,9.43
2017-08-02T10:33:55.463Z,7.20
2017-08-02T10:36:23.537Z,6.60
2017-08-02T10:38:54.014Z,8.30
2017-08-02T10:41:22.783Z,6.83
2017-08-02T10:43:50.377Z,7.10
2017-08-02T10:46:19.708Z,7.63
2017-08-02T10:48:47.984Z,7.50
2017-08-02T10:51:15.626Z,8.00
2017-08-02T10:53:43.249Z,7.70
2017-08-02T10:56:10.857Z,8.17
2017-08-02T10:58:38.429Z,8.20
2017-08-02T11:01:11.570Z,7.00
2017-08-02T11:03:58.501Z,8.80
2017-08-02T11:06:26.092Z,6.83
2017-08-02T11:09:00.381Z,10.97
2017-08-02T11:14:25.631Z,7.00
2017-08-02T11:16:53.198Z,7.07
2017-08-02T11:19:20.792Z,8.13
2017-08-02T11:21:48.564Z,7.00
2017-08-02T11:24:16.357Z,6.53
2017-08-02T11:26:59.115Z,9.00
2017-08-02T11:29:30.146Z,7.67
2017-08-02T11:31:58.759Z,7.07
2017-08-02T11:34:26.492Z,7.13
2017-08-02T11:36:54.223Z,7.63
2017-08-02T11:39:21.856Z,7.07
2017-08-02T11:41:59.532Z,10.10
2017-08-02T11:44:27.201Z,7.53
2017-08-02T11:46:54.773Z,6.93
2017-08-02T11:49:22.576Z,6.93
2017-08-02T11:51:50.250Z,7.20
2017-08-02T12:00:23.654Z,8.43
2017-08-02T12:02:51.306Z,7.67
2017-08-02T12:05:19.008Z,7.70
2017-08-02T12:07:49.228Z,7.90
2017-08-02T12:10:16.944Z,7.90
2017-08-02T12:12:44.568Z,7.50
2017-08-02T12:15:12.247Z,7.23
2017-08-02T12:17:39.983Z,8.00
2017-08-02T12:20:07.700Z,7.70
2017-08-02T12:22:35.500Z,8.20
2017-08-02T12:25:03.123Z,8.27
2017-08-02T12:27:30.581Z,8.13
2017-08-02T12:29:58.253Z,7.87
2017-08-02T12:32:26.471Z,7.10
2017-08-02T12:34:55.389Z,9.47
2017-08-02T12:37:24.472Z,9.00
2017-08-02T12:39:52.265Z,9.33
2017-08-02T12:45:13.410Z,9.57
2017-08-02T12:47:41.178Z,10.50
2017-08-02T12:50:26.372Z,10.10
2017-08-02T12:52:59.361Z,9.70
2017-08-02T12:58:16.184Z,8.57
2017-08-02T13:00:59.896Z,9.67
2017-08-02T13:03:31.123Z,10.03
2017-08-02T13:05:58.816Z,9.90
2017-08-02T13:11:19.488Z,11.17
2017-08-02T13:16:45.430Z,11.33
2017-08-02T13:19:13.187Z,10.87
2017-08-02T13:21:41.020Z,9.87
2017-08-02T13:27:00.828Z,10.53
2017-08-02T13:40:59.668Z,10.87
2017-08-02T13:46:19.852Z,9.63
2017-08-02T13:48:53.239Z,10.23
2017-08-02T13:51:29.684Z,9.73
2017-08-02T13:54:00.302Z,9.90
2017-08-02T14:05:16.738Z,10.27
2017-08-02T14:10:38.973Z,11.27
2017-08-02T14:13:07.162Z,10.80
2017-08-02T14:15:35.122Z,10.27
2017-08-02T14:18:02.965Z,9.43
2017-08-02T14:23:23.583Z,10.63
2017-08-02T14:25:59.801Z,10.90
2017-08-02T14:28:27.676Z,9.30
2017-08-02T14:31:03.336Z,10.10
2017-08-02T14:33:31.221Z,10.57
2017-08-02T14:36:00.082Z,10.30
2017-08-02T14:38:27.852Z,12.07
2017-08-02T14:40:58.362Z,11.00
2017-08-02T14:43:26.181Z,11.43
2017-08-02T14:45:54.005Z,11.47
2017-08-02T14:48:21.710Z,12.37
2017-08-02T14:50:50.193Z,11.60
2017-08-02T14:53:18.236Z,11.30
2017-08-02T14:58:39.340Z,11.80
2017-08-02T15:01:07.351Z,11.00
2017-08-02T15:03:35.112Z,10.73
2017-08-02T15:06:03.289Z,11.70
2017-08-02T15:08:34.487Z,10.27
2017-08-02T15:11:02.333Z,11.00
2017-08-02T15:13:30.505Z,10.60
2017-08-02T15:16:00.311Z,12.63
2017-08-02T15:18:28.775Z,11.00
2017-08-02T15:20:57.040Z,11.27
2017-08-02T15:23:24.811Z,10.90
2017-08-02T15:25:52.560Z,9.40
2017-08-02T15:31:17.788Z,11.13
2017-08-02T15:33:45.519Z,11.90
2017-08-02T15:36:29.497Z,12.07
2017-08-02T15:38:57.296Z,11.03
2017-08-02T15:41:27.122Z,11.10
2017-08-02T15:43:55.187Z,9.97
2017-08-02T15:46:22.908Z,10.00
2017-08-02T15:48:50.583Z,9.90
2017-08-02T15:51:30.417Z,12.00
2017-08-02T15:57:04.063Z,10.77
2017-08-02T15:59:59.908Z,10.93
2017-08-02T16:02:27.634Z,10.07
2017-08-02T16:04:57.674Z,11.20
2017-08-02T16:07:29.647Z,12.50
2017-08-02T16:09:57.467Z,9.60
2017-08-02T16:12:30.523Z,12.27
2017-08-02T16:14:58.332Z,10.63
2017-08-02T16:17:26.198Z,11.27
2017-08-02T16:20:28.994Z,11.53
2017-08-02T16:22:56.698Z,11.27
2017-08-02T16:25:41.665Z,13.10
2017-08-02T16:28:13.442Z,12.10
2017-08-02T16:31:01.257Z,10.87
2017-08-02T16:39:09.810Z,12.73
2017-08-02T16:41:37.779Z,12.20
2017-08-02T16:44:05.706Z,12.37
2017-08-02T16:49:27.195Z,10.40
2017-08-02T16:52:00.854Z,13.40
2017-08-02T16:54:30.627Z,11.20
2017-08-02T16:57:25.290Z,11.00
2017-08-02T17:00:00.572Z,15.10
2017-08-02T17:11:06.477Z,10.60
2017-08-02T17:13:36.215Z,11.80
2017-08-02T17:16:07.158Z,10.97
2017-08-02T17:18:36.898Z,11.50
2017-08-02T17:21:04.689Z,13.87
2017-08-02T17:26:26.917Z,11.70
2017-08-02T17:28:54.774Z,11.80
2017-08-02T17:31:22.618Z,11.70
2017-08-02T17:36:43.705Z,13.13
2017-08-02T17:39:11.462Z,11.80
2017-08-02T17:44:32.078Z,11.47
2017-08-02T17:49:51.639Z,11.20
2017-08-02T17:52:19.771Z,11.00
2017-08-02T17:57:59.834Z,12.27
2017-08-02T18:00:27.691Z,13.07
2017-08-02T18:03:14.458Z,11.47
2017-08-02T18:08:34.800Z,11.37
2017-08-02T18:11:02.466Z,10.70
2017-08-02T18:13:53.232Z,11.27
2017-08-02T18:16:21.074Z,12.20
2017-08-02T18:18:50.665Z,12.30
2017-08-02T18:21:31.627Z,11.33
2017-08-02T18:23:59.574Z,12.43
2017-08-02T18:26:27.387Z,11.93
2017-08-02T18:28:55.755Z,11.10
2017-08-02T18:31:23.973Z,11.60
2017-08-02T18:33:53.790Z,11.93
2017-08-02T18:36:24.920Z,12.03
2017-08-02T18:38:53.389Z,10.93
2017-08-02T18:41:21.218Z,13.27
2017-08-02T18:43:50.113Z,12.87
2017-08-02T18:46:21.088Z,14.67
2017-08-02T18:48:49.956Z,12.70
2017-08-02T18:51:17.722Z,14.00
2017-08-02T18:59:32.156Z,14.00
2017-08-02T19:01:59.777Z,16.10
2017-08-02T19:04:27.458Z,16.53
2017-08-02T19:12:45.677Z,24.40
2017-08-02T19:18:10.995Z,28.67
2017-08-02T19:20:42.981Z,20.27
2017-08-02T19:34:42.461Z,21.43
2017-08-02T19:37:10.179Z,24.00
2017-08-02T19:40:02.039Z,22.30
2017-08-02T19:42:42.446Z,27.07
2017-08-02T19:45:10.376Z,26.70
2017-08-02T19:47:59.673Z,17.23
2017-08-02T19:50:27.915Z,17.23
2017-08-02T20:10:25.986Z,36.23
2017-08-02T20:12:53.731Z,24.90
2017-08-02T20:18:33.649Z,22.57
2017-08-02T20:21:02.419Z,19.60
2017-08-02T20:23:31.349Z,17.60
2017-08-02T20:28:53.748Z,15.67
2017-08-02T20:31:21.848Z,17.70
2017-08-02T20:33:49.531Z,17.53
2017-08-02T20:39:07.701Z,16.67
2017-08-02T20:41:35.605Z,17.90
2017-08-02T20:44:09.822Z,17.40
2017-08-02T20:46:38.556Z,19.73
2017-08-02T20:49:06.310Z,20.40
2017-08-02T20:51:34.000Z,18.67
2017-08-02T20:54:03.095Z,18.50
2017-08-02T20:56:30.826Z,18.17
2017-08-02T20:58:58.397Z,16.50
2017-08-02T21:01:27.714Z,18.77
2017-08-02T21:03:56.043Z,18.77
2017-08-02T21:06:24.160Z,17.80
2017-08-02T21:08:52.899Z,18.33
2017-08-02T21:11:22.230Z,18.63
2017-08-02T21:13:50.000Z,19.60
2017-08-02T21:16:18.172Z,19.93
2017-08-02T21:18:45.868Z,19.57
2017-08-02T21:21:13.592Z,19.37
2017-08-02T21:23:41.504Z,20.27
2017-08-02T21:26:09.337Z,21.07
2017-08-02T21:28:37.114Z,21.03
2017-08-02T21:31:05.012Z,21.90
2017-08-02T21:33:33.242Z,22.20
2017-08-02T21:36:01.121Z,19.40
2017-08-02T21:38:30.842Z,19.30
2017-08-02T21:40:58.726Z,21.80
2017-08-02T21:43:28.714Z,20.30
2017-08-02T21:45:56.850Z,23.93
2017-08-02T21:48:24.495Z,22.03
2017-08-02T21:50:56.983Z,21.97
2017-08-02T21:53:25.070Z,22.20
2017-08-02T21:55:52.693Z,22.37
2017-08-02T21:58:20.751Z,21.63
2017-08-02T22:00:48.541Z,21.57
2017-08-02T22:03:16.342Z,22.27
2017-08-02T22:05:46.024Z,21.50
2017-08-02T22:08:13.792Z,23.10
2017-08-02T22:10:41.447Z,21.27
2017-08-02T22:13:09.317Z,25.20
2017-08-02T22:15:37.125Z,22.00
2017-08-02T22:18:04.715Z,21.80
2017-08-02T22:20:32.363Z,21.97
2017-08-02T22:23:00.264Z,20.70
2017-08-02T22:25:27.872Z,21.80
2017-08-02T22:27:55.549Z,20.80
2017-08-02T22:30:23.258Z,21.40
2017-08-02T22:32:50.931Z,22.67
2017-08-02T22:35:18.753Z,21.70
2017-08-02T22:37:46.358Z,18.70
2017-08-02T22:40:14.004Z,20.13
2017-08-02T22:42:41.669Z,20.23
2017-08-02T22:45:09.329Z,17.47
2017-08-02T22:47:37.078Z,19.13
2017-08-02T22:50:04.917Z,18.63
2017-08-02T22:52:32.604Z,17.63
2017-08-02T22:55:00.409Z,18.30
2017-08-02T22:57:28.166Z,19.27
2017-08-02T22:59:55.941Z,19.00
2017-08-02T23:02:23.657Z,18.43
2017-08-02T23:04:53.755Z,18.13
2017-08-02T23:07:22.950Z,19.13
2017-08-02T23:09:56.562Z,17.73
2017-08-02T23:12:24.365Z,19.47
2017-08-02T23:14:53.320Z,19.90
2017-08-02T23:17:21.181Z,19.57
2017-08-02T23:19:49.005Z,21.60
2017-08-02T23:22:16.803Z,20.07
2017-08-02T23:24:44.468Z,19.37
2017-08-02T23:27:12.118Z,22.90
2017-08-02T23:29:40.177Z,20.40
2017-08-02T23:32:08.062Z,21.43
2017-08-02T23:34:35.980Z,21.27
2017-08-02T23:37:03.678Z,23.20
2017-08-02T23:39:31.500Z,23.53
2017-08-02T23:42:00.365Z,22.50
2017-08-02T23:44:28.109Z,23.23
2017-08-02T23:46:55.815Z,25.63
2017-08-02T23:49:23.522Z,24.60
2017-08-02T23:51:51.216Z,25.70
2017-08-02T23:54:19.427Z,24.47
2017-08-02T23:56:47.044Z,25.20
2017-08-02T23:59:14.788Z,23.73
